createdAt,value
2023-03-03T00:00:20.861Z,30.75
2023-03-03T00:03:18.918Z,31.40
2023-03-03T00:06:05.898Z,29.40
2023-03-03T00:08:45.856Z,31.38
2023-03-03T00:11:39.907Z,31.92
2023-03-03T00:14:33.863Z,35.28
2023-03-03T00:17:15.841Z,32.72
2023-03-03T00:20:09.887Z,32.42
2023-03-03T00:23:03.862Z,32.20
2023-03-03T00:25:59.902Z,31.48
2023-03-03T00:29:04.851Z,30.25
2023-03-03T00:31:51.867Z,29.33
2023-03-03T00:34:24.976Z,31.88
2023-03-03T00:37:29.888Z,31.75
2023-03-03T00:40:41.954Z,32.55
2023-03-03T00:43:31.862Z,30.98
2023-03-03T00:46:11.884Z,30.63
2023-03-03T00:48:58.863Z,31.55
2023-03-03T00:51:40.010Z,30.20
2023-03-03T00:54:26.878Z,32.38
2023-03-03T00:57:06.895Z,32.35
2023-03-03T01:00:00.896Z,31.23
2023-03-03T01:02:47.913Z,35.10
2023-03-03T01:05:22.978Z,35.03
2023-03-03T01:08:09.870Z,36.40
2023-03-03T01:10:53.995Z,34.08
2023-03-03T01:13:43.876Z,31.85
2023-03-03T01:16:23.998Z,32.92
2023-03-03T01:19:10.873Z,33.30
2023-03-03T01:21:50.877Z,32.58
2023-03-03T01:24:44.887Z,36.25
2023-03-03T01:27:31.873Z,37.70
2023-03-03T01:30:11.883Z,35.88
2023-03-03T01:32:58.882Z,30.55
2023-03-03T01:35:32.059Z,35.08
2023-03-03T01:38:18.892Z,34.08
2023-03-03T01:41:02.018Z,34.25
2023-03-03T01:43:56.900Z,30.83
2023-03-03T01:46:49.208Z,31.98
2023-03-03T01:49:42.896Z,30.02
2023-03-03T01:52:35.932Z,33.10
2023-03-03T01:55:29.908Z,28.95
2023-03-03T01:58:22.894Z,29.60
2023-03-03T02:01:15.938Z,31.58
2023-03-03T02:03:57.887Z,32.00
2023-03-03T02:06:56.893Z,30.77
2023-03-03T02:09:51.896Z,28.88
2023-03-03T02:12:36.908Z,29.77
2023-03-03T02:15:35.916Z,30.67
2023-03-03T02:18:33.916Z,30.67
2023-03-03T02:21:34.919Z,30.80
2023-03-03T02:24:21.953Z,29.35
2023-03-03T02:26:54.994Z,30.02
2023-03-03T02:29:41.907Z,29.08
2023-03-03T02:32:21.969Z,30.30
2023-03-03T02:35:15.922Z,29.42
2023-03-03T02:38:20.926Z,29.48
2023-03-03T02:41:22.941Z,31.60
2023-03-03T02:44:20.956Z,29.85
2023-03-03T02:47:07.901Z,29.48
2023-03-03T02:49:49.919Z,31.35
2023-03-03T02:52:36.923Z,31.58
2023-03-03T02:55:16.918Z,31.98
2023-03-03T02:58:03.930Z,30.98
2023-03-03T03:00:43.951Z,29.40
2023-03-03T03:03:30.917Z,29.10
2023-03-03T03:06:04.015Z,30.60
2023-03-03T03:08:50.955Z,28.40
2023-03-03T03:11:30.917Z,27.88
2023-03-03T03:14:18.917Z,28.48
2023-03-03T03:16:59.028Z,29.30
2023-03-03T03:19:45.894Z,27.95
2023-03-03T03:22:19.587Z,25.73
2023-03-03T03:25:05.912Z,28.42
2023-03-03T03:27:39.052Z,27.15
2023-03-03T03:30:26.945Z,27.83
2023-03-03T03:33:00.024Z,27.27
2023-03-03T03:35:51.949Z,26.05
2023-03-03T03:38:25.866Z,26.67
2023-03-03T03:41:20.922Z,26.45
2023-03-03T03:44:14.911Z,26.02
2023-03-03T03:47:08.936Z,27.02
2023-03-03T03:49:55.975Z,28.38
2023-03-03T03:52:29.009Z,26.77
2023-03-03T03:55:15.947Z,26.10
2023-03-03T03:57:49.019Z,25.70
2023-03-03T04:00:35.949Z,24.90
2023-03-03T04:03:09.223Z,25.90
2023-03-03T04:05:57.944Z,26.60
2023-03-03T04:08:31.043Z,25.95
2023-03-03T04:11:17.927Z,26.95
2023-03-03T04:13:51.088Z,27.00
2023-03-03T04:16:37.947Z,27.48
2023-03-03T04:19:11.045Z,25.63
2023-03-03T04:21:57.959Z,23.73
2023-03-03T04:24:37.943Z,23.50
2023-03-03T04:27:31.962Z,23.55
2023-03-03T04:30:26.938Z,24.60
2023-03-03T04:33:20.959Z,29.45
2023-03-03T04:36:07.940Z,25.60
2023-03-03T04:38:41.106Z,27.05
2023-03-03T04:41:27.940Z,24.63
2023-03-03T04:44:07.938Z,25.83
2023-03-03T04:47:01.961Z,23.45
2023-03-03T04:49:55.984Z,25.00
2023-03-03T04:52:49.951Z,28.08
2023-03-03T04:55:43.959Z,26.70
2023-03-03T04:58:30.951Z,29.05
2023-03-03T05:01:04.052Z,28.10
2023-03-03T05:03:50.942Z,28.80
2023-03-03T05:06:24.586Z,28.70
2023-03-03T05:09:10.946Z,25.08
2023-03-03T05:11:44.127Z,24.23
2023-03-03T05:14:30.946Z,24.40
2023-03-03T05:17:06.489Z,26.92
2023-03-03T05:19:52.968Z,26.33
2023-03-03T05:22:32.948Z,26.75
2023-03-03T05:25:26.973Z,25.45
2023-03-03T05:28:13.938Z,27.75
2023-03-03T05:30:53.968Z,25.45
2023-03-03T05:33:40.988Z,24.48
2023-03-03T05:36:15.049Z,23.42
2023-03-03T05:39:01.978Z,23.17
2023-03-03T05:41:42.952Z,21.15
2023-03-03T05:44:29.996Z,24.88
2023-03-03T05:47:03.076Z,23.65
2023-03-03T05:49:49.966Z,23.45
2023-03-03T05:52:31.026Z,23.30
2023-03-03T05:55:17.956Z,24.73
2023-03-03T05:57:58.967Z,24.58
2023-03-03T06:00:52.965Z,23.60
2023-03-03T06:03:47.000Z,22.58
2023-03-03T06:06:40.968Z,21.67
2023-03-03T06:09:27.977Z,22.45
2023-03-03T06:12:07.972Z,22.00
2023-03-03T06:14:55.019Z,25.23
2023-03-03T06:17:28.102Z,21.83
2023-03-03T06:20:15.990Z,22.80
2023-03-03T06:22:49.074Z,25.48
2023-03-03T06:25:35.990Z,25.15
2023-03-03T06:28:16.964Z,26.98
2023-03-03T06:31:10.991Z,26.65
2023-03-03T06:34:04.975Z,23.27
2023-03-03T06:36:59.037Z,25.27
2023-03-03T06:39:52.970Z,24.90
2023-03-03T06:42:47.023Z,22.98
2023-03-03T06:45:34.143Z,25.80
2023-03-03T06:48:07.067Z,23.80
2023-03-03T06:50:53.988Z,23.77
2023-03-03T06:53:34.082Z,24.85
2023-03-03T06:56:28.013Z,31.63
2023-03-03T06:59:22.986Z,28.40
2023-03-03T07:01:57.130Z,26.00
2023-03-03T07:04:45.989Z,28.08
2023-03-03T07:07:37.065Z,28.75
2023-03-03T07:10:37.992Z,29.42
2023-03-03T07:13:24.985Z,29.65
2023-03-03T07:16:12.031Z,28.33
2023-03-03T07:19:12.008Z,28.23
2023-03-03T07:22:06.036Z,28.33
2023-03-03T07:25:10.096Z,27.98
2023-03-03T07:27:51.023Z,27.80
2023-03-03T07:30:38.029Z,31.60
2023-03-03T07:33:12.111Z,31.95
2023-03-03T07:36:02.008Z,32.30
2023-03-03T07:38:56.077Z,31.42
2023-03-03T07:41:50.028Z,34.85
2023-03-03T07:44:42.999Z,32.55
2023-03-03T07:47:41.040Z,35.83
2023-03-03T07:50:30.021Z,34.65
2023-03-03T07:53:08.103Z,34.72
2023-03-03T07:55:55.036Z,33.85
2023-03-03T07:58:56.088Z,34.70
2023-03-03T08:01:47.070Z,32.65
2023-03-03T08:04:25.332Z,34.42
2023-03-03T08:07:24.031Z,35.83
2023-03-03T08:10:08.241Z,32.67
2023-03-03T08:12:55.025Z,32.38
2023-03-03T08:15:38.388Z,31.13
2023-03-03T08:18:35.018Z,32.63
2023-03-03T08:21:23.136Z,31.17
2023-03-03T08:24:02.997Z,33.80
2023-03-03T08:26:43.044Z,33.45
2023-03-03T08:29:16.119Z,31.77
2023-03-03T08:32:03.094Z,28.15
2023-03-03T08:34:36.128Z,32.40
2023-03-03T08:37:23.007Z,31.45
2023-03-03T08:39:56.127Z,31.50
2023-03-03T08:42:43.033Z,29.15
2023-03-03T08:45:23.003Z,29.95
2023-03-03T08:48:10.007Z,29.83
2023-03-03T08:50:50.007Z,31.38
2023-03-03T08:53:45.029Z,33.88
2023-03-03T08:56:39.032Z,31.70
2023-03-03T08:59:33.047Z,29.35
2023-03-03T09:02:27.025Z,25.95
2023-03-03T09:05:15.032Z,28.80
2023-03-03T09:07:49.192Z,29.10
2023-03-03T09:10:38.014Z,33.50
2023-03-03T09:13:20.225Z,31.02
2023-03-03T09:16:07.075Z,32.25
2023-03-03T09:18:52.037Z,31.40
2023-03-03T09:21:46.030Z,32.25
2023-03-03T09:24:41.054Z,30.80
2023-03-03T09:27:42.089Z,27.42
2023-03-03T09:30:33.112Z,30.30
2023-03-03T09:33:35.042Z,30.83
2023-03-03T09:36:19.137Z,30.38
2023-03-03T09:39:07.044Z,31.98
2023-03-03T09:42:02.134Z,32.78
2023-03-03T09:45:03.058Z,29.00
2023-03-03T09:48:06.042Z,30.65
2023-03-03T09:51:09.072Z,28.90
2023-03-03T09:54:18.041Z,29.17
2023-03-03T09:57:11.072Z,27.65
2023-03-03T10:00:16.070Z,27.08
2023-03-03T10:02:50.640Z,27.70
2023-03-03T10:05:50.056Z,26.67
2023-03-03T10:08:52.160Z,26.60
2023-03-03T10:11:52.064Z,26.08
2023-03-03T10:14:52.174Z,26.67
2023-03-03T10:17:51.066Z,25.67
2023-03-03T10:20:40.460Z,25.85
2023-03-03T10:23:50.078Z,26.30
2023-03-03T10:26:44.280Z,25.92
2023-03-03T10:29:50.057Z,25.25
2023-03-03T10:32:26.306Z,26.25
2023-03-03T10:35:13.061Z,26.85
2023-03-03T10:38:09.058Z,25.67
2023-03-03T10:41:30.057Z,24.95
2023-03-03T10:44:26.073Z,28.92
2023-03-03T10:47:05.160Z,27.88
2023-03-03T10:50:04.069Z,27.73
2023-03-03T10:52:49.294Z,26.98
2023-03-03T10:55:57.621Z,26.67
2023-03-03T10:59:09.072Z,26.77
2023-03-03T11:02:09.056Z,29.08
2023-03-03T11:05:03.234Z,29.63
2023-03-03T11:07:57.062Z,27.73
2023-03-03T11:10:39.173Z,28.50
2023-03-03T11:13:32.068Z,30.33
2023-03-03T11:16:35.123Z,33.67
2023-03-03T11:19:53.067Z,30.65
2023-03-03T11:22:36.098Z,29.95
2023-03-03T11:25:33.089Z,30.13
2023-03-03T11:28:32.277Z,29.15
2023-03-03T11:31:36.093Z,30.83
2023-03-03T11:34:38.076Z,29.90
2023-03-03T11:38:02.093Z,30.25
2023-03-03T11:40:56.069Z,29.85
2023-03-03T11:43:50.112Z,32.95
2023-03-03T11:47:15.094Z,33.53
2023-03-03T11:50:07.089Z,30.48
2023-03-03T11:53:22.081Z,31.92
2023-03-03T11:56:27.101Z,32.40
2023-03-03T11:59:04.243Z,31.30
2023-03-03T12:02:04.108Z,28.38
2023-03-03T12:04:50.102Z,30.15
2023-03-03T12:07:54.100Z,30.50
2023-03-03T12:10:51.103Z,29.20
2023-03-03T12:13:27.184Z,31.15
2023-03-03T12:16:27.099Z,30.35
2023-03-03T12:19:19.622Z,30.83
2023-03-03T12:22:23.111Z,30.38
2023-03-03T12:25:03.114Z,31.02
2023-03-03T12:28:09.114Z,25.60
2023-03-03T12:31:12.146Z,29.65
2023-03-03T12:33:51.276Z,27.63
2023-03-03T12:36:56.121Z,28.58
2023-03-03T12:39:54.224Z,30.60
2023-03-03T12:43:45.102Z,28.40
2023-03-03T12:46:51.186Z,28.05
2023-03-03T12:49:24.224Z,28.45
2023-03-03T12:52:39.105Z,29.00
2023-03-03T12:55:38.237Z,24.23
2023-03-03T12:58:47.129Z,26.33
2023-03-03T13:01:41.252Z,26.63
2023-03-03T13:04:40.234Z,28.65
2023-03-03T13:07:43.306Z,26.35
2023-03-03T13:10:55.117Z,26.33
2023-03-03T13:13:49.118Z,26.58
2023-03-03T13:16:53.161Z,26.42
2023-03-03T13:19:51.139Z,28.10
2023-03-03T13:22:46.138Z,26.50
2023-03-03T13:26:01.129Z,25.40
2023-03-03T13:29:10.123Z,25.75
2023-03-03T13:32:29.233Z,27.88
2023-03-03T13:35:23.162Z,26.85
2023-03-03T13:38:20.129Z,26.52
2023-03-03T13:41:39.137Z,26.73
2023-03-03T13:44:50.114Z,27.60
2023-03-03T13:47:46.142Z,29.45
2023-03-03T13:50:44.134Z,28.67
2023-03-03T13:54:04.139Z,27.77
2023-03-03T13:56:52.239Z,32.95
2023-03-03T14:00:01.168Z,29.70
2023-03-03T14:03:03.128Z,30.58
2023-03-03T14:06:03.148Z,26.70
2023-03-03T14:09:18.131Z,28.50
2023-03-03T14:12:03.256Z,30.48
2023-03-03T14:15:06.141Z,32.88
2023-03-03T14:18:16.161Z,32.33
2023-03-03T14:21:14.144Z,30.98
2023-03-03T14:24:12.164Z,30.95
2023-03-03T14:27:04.152Z,30.85
2023-03-03T14:29:47.135Z,32.17
2023-03-03T14:32:45.643Z,35.05
2023-03-03T14:35:39.222Z,34.13
2023-03-03T14:38:22.158Z,34.65
2023-03-03T14:41:25.162Z,33.38
2023-03-03T14:44:27.188Z,31.83
2023-03-03T14:47:16.255Z,33.45
2023-03-03T14:50:09.193Z,33.63
2023-03-03T14:52:42.633Z,34.75
2023-03-03T14:55:42.161Z,34.67
2023-03-03T14:58:32.294Z,32.90
2023-03-03T15:01:36.180Z,34.63
2023-03-03T15:04:12.296Z,35.58
2023-03-03T15:07:01.154Z,35.17
2023-03-03T15:10:03.211Z,34.70
2023-03-03T15:12:57.205Z,33.13
2023-03-03T15:16:22.179Z,33.67
2023-03-03T15:19:09.175Z,36.30
2023-03-03T15:21:56.160Z,35.92
2023-03-03T15:24:54.187Z,36.00
2023-03-03T15:27:56.314Z,35.72
2023-03-03T15:30:52.211Z,37.33
2023-03-03T15:33:33.556Z,40.80
2023-03-03T15:36:40.187Z,41.83
2023-03-03T15:39:34.929Z,40.17
2023-03-03T15:42:56.195Z,40.67
2023-03-03T15:45:45.182Z,43.40
2023-03-03T15:48:55.193Z,39.58
2023-03-03T15:52:03.135Z,38.10
2023-03-03T15:54:53.184Z,41.13
2023-03-03T15:58:06.204Z,37.05
2023-03-03T16:01:04.139Z,35.55
2023-03-03T16:04:03.182Z,36.63
2023-03-03T16:07:03.190Z,37.42
2023-03-03T16:09:52.224Z,37.63
2023-03-03T16:12:48.183Z,36.28
2023-03-03T16:15:37.201Z,35.40
2023-03-03T16:18:40.177Z,36.00
2023-03-03T16:21:46.187Z,37.58
2023-03-03T16:24:48.189Z,37.63
2023-03-03T16:27:42.383Z,38.15
2023-03-03T16:30:39.207Z,38.50
2023-03-03T16:33:50.209Z,37.78
2023-03-03T16:37:27.229Z,38.75
2023-03-03T16:40:49.237Z,34.70
2023-03-03T16:44:00.320Z,36.47
2023-03-03T16:46:55.710Z,36.25
2023-03-03T16:50:06.218Z,37.10
2023-03-03T16:53:05.192Z,36.60
2023-03-03T16:55:44.303Z,42.40
2023-03-03T16:58:46.199Z,41.53
2023-03-03T17:01:43.361Z,40.83
2023-03-03T17:04:53.246Z,40.08
2023-03-03T17:07:49.321Z,34.70
2023-03-03T17:10:42.205Z,37.28
2023-03-03T17:13:36.321Z,41.08
2023-03-03T17:16:42.829Z,38.97
2023-03-03T17:19:32.358Z,36.30
2023-03-03T17:22:26.206Z,39.35
2023-03-03T17:25:08.468Z,38.47
2023-03-03T17:28:04.219Z,42.03
2023-03-03T17:31:02.364Z,39.80
2023-03-03T17:33:55.212Z,41.22
2023-03-03T17:36:43.411Z,41.55
2023-03-03T17:39:39.245Z,43.03
2023-03-03T17:42:26.365Z,42.67
2023-03-03T17:45:19.247Z,40.30
2023-03-03T17:48:04.356Z,42.58
2023-03-03T17:51:31.229Z,42.95
2023-03-03T17:54:36.276Z,41.50
2023-03-03T17:57:32.228Z,43.22
2023-03-03T18:00:46.229Z,44.00
2023-03-03T18:03:51.258Z,41.30
2023-03-03T18:07:06.252Z,40.55
2023-03-03T18:10:11.249Z,41.00
2023-03-03T18:13:03.342Z,40.10
2023-03-03T18:16:18.854Z,43.35
2023-03-03T18:19:19.238Z,40.55
2023-03-03T18:22:38.236Z,42.40
2023-03-03T18:25:52.252Z,41.78
2023-03-03T18:28:30.356Z,45.25
2023-03-03T18:31:33.246Z,46.20
2023-03-03T18:34:16.371Z,42.45
2023-03-03T18:37:08.236Z,39.33
2023-03-03T18:40:01.244Z,40.00
2023-03-03T18:43:00.263Z,41.53
2023-03-03T18:45:57.275Z,41.85
2023-03-03T18:49:06.231Z,38.65
2023-03-03T18:51:45.887Z,38.45
2023-03-03T18:54:38.280Z,40.17
2023-03-03T18:57:24.428Z,38.03
2023-03-03T19:00:22.252Z,40.53
2023-03-03T19:03:05.234Z,39.63
2023-03-03T19:05:55.527Z,37.80
2023-03-03T19:08:54.258Z,37.67
2023-03-03T19:11:52.262Z,41.13
2023-03-03T19:14:51.277Z,37.78
2023-03-03T19:17:33.302Z,41.40
2023-03-03T19:20:30.886Z,38.45
2023-03-03T19:23:33.286Z,36.78
2023-03-03T19:27:11.247Z,39.65
2023-03-03T19:30:19.271Z,37.47
2023-03-03T19:33:33.271Z,40.45
2023-03-03T19:36:15.476Z,41.15
2023-03-03T19:39:24.275Z,41.90
2023-03-03T19:42:12.243Z,41.40
2023-03-03T19:45:40.267Z,41.42
2023-03-03T19:48:49.248Z,42.00
2023-03-03T19:51:37.499Z,39.45
2023-03-03T19:54:27.253Z,39.72
2023-03-03T19:57:03.389Z,43.35
2023-03-03T20:00:01.326Z,43.35
2023-03-03T20:03:15.294Z,47.60
2023-03-03T20:06:25.267Z,44.83
2023-03-03T20:09:30.283Z,44.85
2023-03-03T20:12:37.303Z,42.78
2023-03-03T20:15:25.371Z,43.22
2023-03-03T20:18:51.262Z,46.00
2023-03-03T20:21:40.390Z,48.80
2023-03-03T20:24:59.380Z,48.22
2023-03-03T20:28:16.403Z,44.00
2023-03-03T20:31:39.330Z,45.33
2023-03-03T20:34:41.257Z,43.00
2023-03-03T20:37:59.287Z,42.88
2023-03-03T20:41:09.278Z,43.42
2023-03-03T20:45:22.369Z,43.65
2023-03-03T20:48:37.283Z,46.05
2023-03-03T20:51:50.299Z,45.72
2023-03-03T20:54:45.282Z,47.10
2023-03-03T20:57:40.294Z,49.33
2023-03-03T21:00:29.279Z,48.55
2023-03-03T21:03:16.367Z,47.95
2023-03-03T21:06:15.194Z,51.95
2023-03-03T21:09:04.361Z,49.67
2023-03-03T21:11:37.390Z,51.65
2023-03-03T21:14:28.317Z,53.08
2023-03-03T21:17:04.408Z,53.28
2023-03-03T21:19:51.283Z,53.08
2023-03-03T21:22:25.580Z,51.50
2023-03-03T21:25:12.291Z,50.83
2023-03-03T21:27:52.316Z,48.10
2023-03-03T21:30:46.307Z,48.58
2023-03-03T21:33:49.304Z,50.55
2023-03-03T21:36:39.484Z,49.10
2023-03-03T21:39:27.288Z,48.60
2023-03-03T21:42:08.445Z,46.53
2023-03-03T21:44:57.408Z,47.08
2023-03-03T21:47:41.381Z,44.13
2023-03-03T21:50:28.308Z,47.90
2023-03-03T21:53:08.290Z,47.38
2023-03-03T21:55:58.264Z,46.22
2023-03-03T21:58:31.495Z,42.63
2023-03-03T22:01:18.331Z,45.95
2023-03-03T22:03:58.429Z,44.92
2023-03-03T22:06:45.346Z,43.80
2023-03-03T22:09:18.431Z,44.67
2023-03-03T22:12:05.308Z,41.33
2023-03-03T22:14:38.432Z,44.05
2023-03-03T22:17:25.297Z,42.17
2023-03-03T22:19:59.413Z,43.38
2023-03-03T22:22:46.325Z,41.08
2023-03-03T22:25:19.420Z,43.65
2023-03-03T22:28:06.347Z,42.10
2023-03-03T22:30:46.501Z,42.25
2023-03-03T22:33:33.293Z,40.70
2023-03-03T22:36:13.336Z,40.58
2023-03-03T22:39:07.345Z,41.90
2023-03-03T22:42:01.353Z,39.45
2023-03-03T22:44:55.316Z,40.20
2023-03-03T22:47:45.323Z,38.15
2023-03-03T22:50:26.316Z,40.35
2023-03-03T22:53:20.331Z,37.80
2023-03-03T22:56:07.319Z,38.70
2023-03-03T22:58:40.431Z,37.67
2023-03-03T23:01:27.329Z,43.03
2023-03-03T23:04:07.382Z,41.97
2023-03-03T23:07:01.377Z,43.85
2023-03-03T23:09:48.304Z,45.13
2023-03-03T23:12:28.330Z,49.70
2023-03-03T23:15:22.325Z,53.03
2023-03-03T23:18:09.336Z,47.35
2023-03-03T23:20:52.327Z,42.60
2023-03-03T23:23:39.310Z,44.75
2023-03-03T23:26:12.593Z,42.72
2023-03-03T23:28:59.310Z,43.28
2023-03-03T23:31:32.494Z,40.80
2023-03-03T23:34:19.318Z,40.42
2023-03-03T23:36:59.332Z,39.47
2023-03-03T23:39:47.339Z,41.72
2023-03-03T23:42:20.980Z,41.60
2023-03-03T23:45:07.339Z,43.17
2023-03-03T23:47:40.496Z,41.08
2023-03-03T23:50:27.348Z,40.20
2023-03-03T23:53:00.476Z,39.55
2023-03-03T23:55:47.340Z,43.80
2023-03-03T23:58:20.483Z,39.97
